Kailua, HI

8:16 PM HST on May 03, 2015 (GMT -1000)
Kailua Beach | | Change Station
CLOSE
Current Station
Personal Weather Station
Location: Kailua, HI
Elevation: 10 ft
Nearby Weather Stations

Elev 10 ft 21.40 °N, 157.73 °W | Updated 2 minutes ago

Scattered Clouds
Scattered Clouds
75.4 °F
Feels Like 77 °F
N
13.0
Wind Variable Wind from East
Gusts 17.0 mph

Today
High -- | Low -- °F
--% Chance of Precip.
Yesterday
High -- | Low -- °F
Precip. -- in
5:58 AM 6:57 PM
Full, 100% visible
Pressure 29.99 in
Visibility -9999.0 miles
Clouds Scattered Clouds 2800 ft
Heat Index 77 °F
Dew Point 67 °F
Humidity 76%
Rainfall 0.00 in
Snow Depth Not available.
UV 0 out of 12
Pollen Not available.
Air Quality Not available.
Flu Activity Regional
METAR PHNG 040557Z AUTO 08007G16KT SCT028 24/17 A3000 RMK AO2 SLP154 T02390167 10278 20239 53017 $

More Conditions Fewer Conditions

Pressure 29.99 in
Visibility -9999.0 miles
Clouds Scattered Clouds 2800 ft
Heat Index 77 °F
Dew Point 67 °F
Humidity 76%
Rainfall 0.00 in
Snow Depth Not available.
UV 0 out of 12
Pollen Not available.
Air Quality Not available.
Flu Activity Regional
METAR PHNG 040557Z AUTO 08007G16KT SCT028 24/17 A3000 RMK AO2 SLP154 T02390167 10278 20239 53017 $

More Conditions Fewer Conditions

10-Day Weather Forecast

Almanac

Astronomy

May. 03, 2015 Rise Set
Actual Time
Civil Twilight
Nautical Twilight
Astronomical Twilight
Moon
Length of Visible Light
Length of Day
Tomorrow will be .
, % of the Moon is Illuminated

Today's Extremes

State Highs State Lows

Community

WunderPhotos

Upload Photos

1,818,535 photos uploaded!

WunderBlogs® & News

Nearby

Air Quality

  Air Quality AQ Index Pollutant
Not available.

Snow Depth

Station Depth Elevation

Earthquake Activity

City Distance Mag. Time & Date
Minimum magnitude displayed is 2.5.

Coastal Water Temperatures

Place Temperature

Stations

Nearby Weather Stations

Station Location Temp. Windchill Dew Point Humidity Wind Precip. Elev Updated Type